sensor_id;sensor_type;location;lat;lon;timestamp;P1;durP1;ratioP1;P2;durP2;ratioP2
1300;SDS011;59099;48.806;9.160;2022-09-13T00:00:57;3.47;;;2.87;;
1300;SDS011;59099;48.806;9.160;2022-09-13T00:03:24;2.60;;;2.40;;
1300;SDS011;59099;48.806;9.160;2022-09-13T00:05:50;3.10;;;2.50;;
1300;SDS011;59099;48.806;9.160;2022-09-13T00:08:16;3.50;;;2.13;;
1300;SDS011;59099;48.806;9.160;2022-09-13T00:10:43;2.03;;;1.93;;
1300;SDS011;59099;48.806;9.160;2022-09-13T00:13:09;3.43;;;2.13;;
1300;SDS011;59099;48.806;9.160;2022-09-13T00:15:41;3.13;;;2.40;;
1300;SDS011;59099;48.806;9.160;2022-09-13T00:18:08;2.10;;;1.93;;
1300;SDS011;59099;48.806;9.160;2022-09-13T00:20:34;3.00;;;2.60;;
1300;SDS011;59099;48.806;9.160;2022-09-13T00:22:59;4.80;;;2.23;;
1300;SDS011;59099;48.806;9.160;2022-09-13T00:25:25;2.17;;;2.07;;
1300;SDS011;59099;48.806;9.160;2022-09-13T00:27:51;2.87;;;2.50;;
1300;SDS011;59099;48.806;9.160;2022-09-13T00:30:16;3.00;;;2.60;;
1300;SDS011;59099;48.806;9.160;2022-09-13T00:32:42;2.70;;;2.50;;
1300;SDS011;59099;48.806;9.160;2022-09-13T00:35:08;2.07;;;1.87;;
1300;SDS011;59099;48.806;9.160;2022-09-13T00:37:34;2.50;;;2.30;;
1300;SDS011;59099;48.806;9.160;2022-09-13T00:40:00;4.20;;;2.03;;
1300;SDS011;59099;48.806;9.160;2022-09-13T00:42:27;2.67;;;2.40;;
1300;SDS011;59099;48.806;9.160;2022-09-13T00:47:49;2.10;;;2.00;;
1300;SDS011;59099;48.806;9.160;2022-09-13T00:50:30;2.40;;;2.20;;
1300;SDS011;59099;48.806;9.160;2022-09-13T00:53:21;2.90;;;2.43;;
1300;SDS011;59099;48.806;9.160;2022-09-13T00:56:18;4.10;;;2.40;;
1300;SDS011;59099;48.806;9.160;2022-09-13T00:58:51;2.00;;;1.90;;
1300;SDS011;59099;48.806;9.160;2022-09-13T01:01:28;2.50;;;2.30;;
1300;SDS011;59099;48.806;9.160;2022-09-13T01:03:58;2.03;;;1.93;;
1300;SDS011;59099;48.806;9.160;2022-09-13T01:06:26;2.47;;;2.00;;
1300;SDS011;59099;48.806;9.160;2022-09-13T01:08:57;2.10;;;2.00;;
1300;SDS011;59099;48.806;9.160;2022-09-13T01:11:34;2.40;;;2.20;;
1300;SDS011;59099;48.806;9.160;2022-09-13T01:14:09;2.07;;;1.87;;
1300;SDS011;59099;48.806;9.160;2022-09-13T01:16:37;2.83;;;2.20;;
1300;SDS011;59099;48.806;9.160;2022-09-13T01:19:04;1.80;;;1.70;;
1300;SDS011;59099;48.806;9.160;2022-09-13T01:21:45;3.20;;;2.20;;
1300;SDS011;59099;48.806;9.160;2022-09-13T01:32:34;2.20;;;1.93;;
1300;SDS011;59099;48.806;9.160;2022-09-13T01:38:34;3.63;;;1.80;;
1300;SDS011;59099;48.806;9.160;2022-09-13T01:41:07;2.33;;;2.23;;
1300;SDS011;59099;48.806;9.160;2022-09-13T01:43:50;2.00;;;1.90;;
1300;SDS011;59099;48.806;9.160;2022-09-13T01:46:35;5.20;;;2.77;;
1300;SDS011;59099;48.806;9.160;2022-09-13T01:52:09;2.23;;;1.63;;
1300;SDS011;59099;48.806;9.160;2022-09-13T01:58:02;2.97;;;2.03;;
1300;SDS011;59099;48.806;9.160;2022-09-13T02:00:57;2.97;;;2.40;;
1300;SDS011;59099;48.806;9.160;2022-09-13T02:03:33;2.17;;;2.00;;
1300;SDS011;59099;48.806;9.160;2022-09-13T02:06:05;2.30;;;1.90;;
1300;SDS011;59099;48.806;9.160;2022-09-13T02:09:37;2.43;;;1.97;;
1300;SDS011;59099;48.806;9.160;2022-09-13T02:11:39;2.87;;;1.97;;
1300;SDS011;59099;48.806;9.160;2022-09-13T02:14:11;3.20;;;1.80;;
1300;SDS011;59099;48.806;9.160;2022-09-13T02:19:25;2.43;;;1.97;;
1300;SDS011;59099;48.806;9.160;2022-09-13T02:21:58;2.07;;;1.93;;
1300;SDS011;59099;48.806;9.160;2022-09-13T02:24:28;3.13;;;2.23;;
1300;SDS011;59099;48.806;9.160;2022-09-13T02:27:07;3.50;;;1.80;;
1300;SDS011;59099;48.806;9.160;2022-09-13T02:29:36;2.90;;;2.10;;
1300;SDS011;59099;48.806;9.160;2022-09-13T02:32:11;2.60;;;1.90;;
1300;SDS011;59099;48.806;9.160;2022-09-13T02:34:39;2.60;;;2.10;;
1300;SDS011;59099;48.806;9.160;2022-09-13T02:37:10;2.50;;;1.93;;
1300;SDS011;59099;48.806;9.160;2022-09-13T02:39:39;2.23;;;2.03;;
1300;SDS011;59099;48.806;9.160;2022-09-13T02:42:29;2.43;;;2.23;;
1300;SDS011;59099;48.806;9.160;2022-09-13T02:45:11;2.47;;;2.30;;
1300;SDS011;59099;48.806;9.160;2022-09-13T02:51:03;2.37;;;2.00;;
1300;SDS011;59099;48.806;9.160;2022-09-13T02:54:13;2.60;;;2.40;;
1300;SDS011;59099;48.806;9.160;2022-09-13T02:56:58;2.43;;;2.23;;
1300;SDS011;59099;48.806;9.160;2022-09-13T02:59:41;2.27;;;1.90;;
1300;SDS011;59099;48.806;9.160;2022-09-13T03:02:13;1.97;;;1.87;;
1300;SDS011;59099;48.806;9.160;2022-09-13T03:04:43;5.10;;;2.33;;
1300;SDS011;59099;48.806;9.160;2022-09-13T03:07:12;2.33;;;2.13;;
1300;SDS011;59099;48.806;9.160;2022-09-13T03:09:40;2.23;;;2.03;;
1300;SDS011;59099;48.806;9.160;2022-09-13T03:14:45;2.27;;;2.07;;
1300;SDS011;59099;48.806;9.160;2022-09-13T03:22:50;1.90;;;1.80;;
1300;SDS011;59099;48.806;9.160;2022-09-13T03:31:17;2.93;;;2.63;;
1300;SDS011;59099;48.806;9.160;2022-09-13T03:33:55;2.33;;;2.13;;
1300;SDS011;59099;48.806;9.160;2022-09-13T03:36:41;2.57;;;2.37;;
1300;SDS011;59099;48.806;9.160;2022-09-13T03:41:46;3.77;;;2.10;;
1300;SDS011;59099;48.806;9.160;2022-09-13T03:44:17;3.00;;;2.37;;
1300;SDS011;59099;48.806;9.160;2022-09-13T03:46:46;2.20;;;2.10;;
1300;SDS011;59099;48.806;9.160;2022-09-13T03:49:17;1.90;;;1.80;;
1300;SDS011;59099;48.806;9.160;2022-09-13T03:51:47;2.43;;;2.23;;
1300;SDS011;59099;48.806;9.160;2022-09-13T03:54:19;2.00;;;1.80;;
1300;SDS011;59099;48.806;9.160;2022-09-13T03:57:04;3.67;;;1.70;;
1300;SDS011;59099;48.806;9.160;2022-09-13T03:59:32;2.50;;;2.30;;
1300;SDS011;59099;48.806;9.160;2022-09-13T04:02:01;3.07;;;2.30;;
1300;SDS011;59099;48.806;9.160;2022-09-13T04:04:27;2.00;;;1.90;;
1300;SDS011;59099;48.806;9.160;2022-09-13T04:06:53;3.43;;;2.57;;
1300;SDS011;59099;48.806;9.160;2022-09-13T04:09:20;1.90;;;1.80;;
1300;SDS011;59099;48.806;9.160;2022-09-13T04:11:46;2.13;;;2.03;;
1300;SDS011;59099;48.806;9.160;2022-09-13T04:14:12;2.10;;;1.90;;
1300;SDS011;59099;48.806;9.160;2022-09-13T04:16:40;2.97;;;2.30;;
1300;SDS011;59099;48.806;9.160;2022-09-13T04:19:06;2.57;;;2.37;;
1300;SDS011;59099;48.806;9.160;2022-09-13T04:21:32;2.87;;;2.67;;
1300;SDS011;59099;48.806;9.160;2022-09-13T04:23:57;4.00;;;2.40;;
1300;SDS011;59099;48.806;9.160;2022-09-13T04:26:23;3.10;;;2.40;;
1300;SDS011;59099;48.806;9.160;2022-09-13T04:28:51;2.80;;;2.60;;
1300;SDS011;59099;48.806;9.160;2022-09-13T04:31:17;3.00;;;2.80;;
1300;SDS011;59099;48.806;9.160;2022-09-13T04:33:43;4.37;;;2.67;;
1300;SDS011;59099;48.806;9.160;2022-09-13T04:36:08;4.77;;;2.83;;
1300;SDS011;59099;48.806;9.160;2022-09-13T04:38:34;2.40;;;2.10;;
1300;SDS011;59099;48.806;9.160;2022-09-13T04:41:01;4.10;;;2.80;;
1300;SDS011;59099;48.806;9.160;2022-09-13T04:43:27;3.90;;;2.70;;
1300;SDS011;59099;48.806;9.160;2022-09-13T04:45:53;2.80;;;2.63;;
1300;SDS011;59099;48.806;9.160;2022-09-13T04:48:19;3.47;;;2.87;;
1300;SDS011;59099;48.806;9.160;2022-09-13T04:50:44;3.40;;;3.10;;
1300;SDS011;59099;48.806;9.160;2022-09-13T04:53:11;3.30;;;2.43;;
1300;SDS011;59099;48.806;9.160;2022-09-13T04:55:37;2.50;;;2.30;;
1300;SDS011;59099;48.806;9.160;2022-09-13T04:58:03;3.73;;;3.03;;
1300;SDS011;59099;48.806;9.160;2022-09-13T05:00:29;5.27;;;3.20;;
1300;SDS011;59099;48.806;9.160;2022-09-13T05:02:55;2.93;;;2.73;;
1300;SDS011;59099;48.806;9.160;2022-09-13T05:05:21;2.87;;;2.60;;
1300;SDS011;59099;48.806;9.160;2022-09-13T05:07:49;3.13;;;2.93;;
1300;SDS011;59099;48.806;9.160;2022-09-13T05:10:16;2.83;;;2.63;;
1300;SDS011;59099;48.806;9.160;2022-09-13T05:12:42;2.80;;;2.60;;
1300;SDS011;59099;48.806;9.160;2022-09-13T05:15:08;2.70;;;2.50;;
1300;SDS011;59099;48.806;9.160;2022-09-13T05:17:36;5.03;;;3.63;;
1300;SDS011;59099;48.806;9.160;2022-09-13T05:20:02;3.73;;;2.13;;
1300;SDS011;59099;48.806;9.160;2022-09-13T05:22:29;3.80;;;2.70;;
1300;SDS011;59099;48.806;9.160;2022-09-13T05:24:55;6.30;;;3.10;;
1300;SDS011;59099;48.806;9.160;2022-09-13T05:27:30;3.00;;;2.80;;
1300;SDS011;59099;48.806;9.160;2022-09-13T05:29:55;4.20;;;3.23;;
1300;SDS011;59099;48.806;9.160;2022-09-13T05:32:21;4.33;;;2.93;;
1300;SDS011;59099;48.806;9.160;2022-09-13T05:34:47;4.90;;;2.90;;
1300;SDS011;59099;48.806;9.160;2022-09-13T05:37:13;2.73;;;2.53;;
1300;SDS011;59099;48.806;9.160;2022-09-13T05:39:38;3.70;;;2.90;;
1300;SDS011;59099;48.806;9.160;2022-09-13T05:42:04;3.03;;;2.80;;
1300;SDS011;59099;48.806;9.160;2022-09-13T05:44:30;3.30;;;3.00;;
1300;SDS011;59099;48.806;9.160;2022-09-13T05:46:56;4.53;;;2.83;;
1300;SDS011;59099;48.806;9.160;2022-09-13T05:49:21;5.57;;;2.27;;
1300;SDS011;59099;48.806;9.160;2022-09-13T05:51:48;4.20;;;2.97;;
1300;SDS011;59099;48.806;9.160;2022-09-13T05:54:13;5.33;;;3.00;;
1300;SDS011;59099;48.806;9.160;2022-09-13T05:56:39;4.73;;;3.00;;
1300;SDS011;59099;48.806;9.160;2022-09-13T05:59:05;4.13;;;3.47;;
1300;SDS011;59099;48.806;9.160;2022-09-13T06:01:31;4.10;;;2.40;;
1300;SDS011;59099;48.806;9.160;2022-09-13T06:03:57;4.27;;;3.20;;
1300;SDS011;59099;48.806;9.160;2022-09-13T06:06:23;3.30;;;2.70;;
1300;SDS011;59099;48.806;9.160;2022-09-13T06:08:53;7.00;;;3.70;;
1300;SDS011;59099;48.806;9.160;2022-09-13T06:11:20;3.60;;;3.30;;
1300;SDS011;59099;48.806;9.160;2022-09-13T06:13:46;3.80;;;3.50;;
1300;SDS011;59099;48.806;9.160;2022-09-13T06:16:13;4.27;;;3.60;;
1300;SDS011;59099;48.806;9.160;2022-09-13T06:18:41;3.73;;;3.10;;
1300;SDS011;59099;48.806;9.160;2022-09-13T06:21:08;4.53;;;3.10;;
1300;SDS011;59099;48.806;9.160;2022-09-13T06:23:36;5.43;;;2.70;;
1300;SDS011;59099;48.806;9.160;2022-09-13T06:26:03;3.90;;;2.73;;
1300;SDS011;59099;48.806;9.160;2022-09-13T06:28:31;4.23;;;3.00;;
1300;SDS011;59099;48.806;9.160;2022-09-13T06:33:36;3.10;;;2.80;;
1300;SDS011;59099;48.806;9.160;2022-09-13T06:36:04;3.50;;;3.20;;
1300;SDS011;59099;48.806;9.160;2022-09-13T06:38:31;4.53;;;3.93;;
1300;SDS011;59099;48.806;9.160;2022-09-13T06:41:04;5.83;;;3.33;;
1300;SDS011;59099;48.806;9.160;2022-09-13T06:43:31;3.20;;;2.90;;
1300;SDS011;59099;48.806;9.160;2022-09-13T06:45:59;4.30;;;3.30;;
1300;SDS011;59099;48.806;9.160;2022-09-13T06:48:26;3.40;;;3.10;;
1300;SDS011;59099;48.806;9.160;2022-09-13T06:50:56;3.20;;;3.00;;
1300;SDS011;59099;48.806;9.160;2022-09-13T06:53:23;3.17;;;2.97;;
1300;SDS011;59099;48.806;9.160;2022-09-13T06:55:58;3.43;;;3.13;;
1300;SDS011;59099;48.806;9.160;2022-09-13T06:58:30;3.20;;;3.00;;
1300;SDS011;59099;48.806;9.160;2022-09-13T07:04:06;4.37;;;2.50;;
1300;SDS011;59099;48.806;9.160;2022-09-13T07:06:34;4.10;;;2.53;;
1300;SDS011;59099;48.806;9.160;2022-09-13T07:09:02;3.27;;;2.97;;
1300;SDS011;59099;48.806;9.160;2022-09-13T07:11:34;5.00;;;3.70;;
1300;SDS011;59099;48.806;9.160;2022-09-13T07:14:02;3.63;;;3.37;;
1300;SDS011;59099;48.806;9.160;2022-09-13T07:16:29;3.33;;;2.97;;
1300;SDS011;59099;48.806;9.160;2022-09-13T07:18:57;6.57;;;3.17;;
1300;SDS011;59099;48.806;9.160;2022-09-13T07:21:25;4.50;;;4.07;;
1300;SDS011;59099;48.806;9.160;2022-09-13T07:23:52;4.53;;;4.03;;
1300;SDS011;59099;48.806;9.160;2022-09-13T07:26:19;5.07;;;4.07;;
1300;SDS011;59099;48.806;9.160;2022-09-13T07:28:47;3.40;;;3.10;;
1300;SDS011;59099;48.806;9.160;2022-09-13T07:31:15;5.03;;;3.40;;
1300;SDS011;59099;48.806;9.160;2022-09-13T07:33:46;3.93;;;3.50;;
1300;SDS011;59099;48.806;9.160;2022-09-13T07:36:13;4.70;;;3.40;;
1300;SDS011;59099;48.806;9.160;2022-09-13T07:38:40;3.70;;;3.40;;
1300;SDS011;59099;48.806;9.160;2022-09-13T07:41:09;4.60;;;3.30;;
1300;SDS011;59099;48.806;9.160;2022-09-13T07:43:37;6.57;;;4.00;;
1300;SDS011;59099;48.806;9.160;2022-09-13T07:46:07;8.83;;;3.80;;
1300;SDS011;59099;48.806;9.160;2022-09-13T07:48:35;4.70;;;3.50;;
1300;SDS011;59099;48.806;9.160;2022-09-13T07:51:09;6.13;;;4.10;;
1300;SDS011;59099;48.806;9.160;2022-09-13T07:53:37;4.30;;;3.37;;
1300;SDS011;59099;48.806;9.160;2022-09-13T07:58:34;6.60;;;3.70;;
1300;SDS011;59099;48.806;9.160;2022-09-13T08:01:08;5.83;;;3.53;;
1300;SDS011;59099;48.806;9.160;2022-09-13T08:03:43;4.40;;;3.80;;
1300;SDS011;59099;48.806;9.160;2022-09-13T08:06:09;4.43;;;4.00;;
1300;SDS011;59099;48.806;9.160;2022-09-13T08:08:35;9.13;;;3.80;;
1300;SDS011;59099;48.806;9.160;2022-09-13T08:11:03;4.47;;;3.47;;
1300;SDS011;59099;48.806;9.160;2022-09-13T08:13:30;3.63;;;3.27;;
1300;SDS011;59099;48.806;9.160;2022-09-13T08:16:00;3.20;;;2.60;;
1300;SDS011;59099;48.806;9.160;2022-09-13T08:18:27;4.50;;;3.80;;
1300;SDS011;59099;48.806;9.160;2022-09-13T08:20:56;4.47;;;2.90;;
1300;SDS011;59099;48.806;9.160;2022-09-13T08:23:22;3.90;;;3.40;;
1300;SDS011;59099;48.806;9.160;2022-09-13T08:25:48;5.20;;;3.33;;
1300;SDS011;59099;48.806;9.160;2022-09-13T08:28:15;5.13;;;3.80;;
1300;SDS011;59099;48.806;9.160;2022-09-13T08:30:42;5.20;;;3.27;;
1300;SDS011;59099;48.806;9.160;2022-09-13T08:33:09;5.33;;;3.23;;
1300;SDS011;59099;48.806;9.160;2022-09-13T08:35:36;4.20;;;3.37;;
1300;SDS011;59099;48.806;9.160;2022-09-13T08:38:02;4.40;;;3.20;;
1300;SDS011;59099;48.806;9.160;2022-09-13T08:40:37;3.40;;;2.97;;
1300;SDS011;59099;48.806;9.160;2022-09-13T08:43:09;4.73;;;3.00;;
1300;SDS011;59099;48.806;9.160;2022-09-13T08:45:59;3.60;;;3.30;;
1300;SDS011;59099;48.806;9.160;2022-09-13T08:48:35;4.73;;;3.10;;
1300;SDS011;59099;48.806;9.160;2022-09-13T08:51:14;4.30;;;3.40;;
1300;SDS011;59099;48.806;9.160;2022-09-13T08:54:00;3.03;;;2.77;;
1300;SDS011;59099;48.806;9.160;2022-09-13T09:01:45;4.80;;;3.13;;
1300;SDS011;59099;48.806;9.160;2022-09-13T09:04:49;6.37;;;3.23;;
1300;SDS011;59099;48.806;9.160;2022-09-13T09:07:08;5.20;;;3.57;;
1300;SDS011;59099;48.806;9.160;2022-09-13T09:09:43;4.07;;;3.23;;
1300;SDS011;59099;48.806;9.160;2022-09-13T09:14:57;4.77;;;2.80;;
1300;SDS011;59099;48.806;9.160;2022-09-13T09:20:23;7.07;;;3.30;;
1300;SDS011;59099;48.806;9.160;2022-09-13T09:22:57;3.77;;;1.97;;
1300;SDS011;59099;48.806;9.160;2022-09-13T09:25:26;4.10;;;2.67;;
1300;SDS011;59099;48.806;9.160;2022-09-13T09:27:53;3.10;;;2.90;;
1300;SDS011;59099;48.806;9.160;2022-09-13T09:30:20;10.83;;;3.27;;
1300;SDS011;59099;48.806;9.160;2022-09-13T09:35:51;4.53;;;3.43;;
1300;SDS011;59099;48.806;9.160;2022-09-13T09:38:39;4.10;;;3.03;;
1300;SDS011;59099;48.806;9.160;2022-09-13T09:41:11;3.10;;;2.80;;
1300;SDS011;59099;48.806;9.160;2022-09-13T09:43:47;4.03;;;2.53;;
1300;SDS011;59099;48.806;9.160;2022-09-13T09:46:25;3.77;;;3.00;;
1300;SDS011;59099;48.806;9.160;2022-09-13T09:48:55;4.70;;;2.67;;
1300;SDS011;59099;48.806;9.160;2022-09-13T09:51:49;4.53;;;2.90;;
1300;SDS011;59099;48.806;9.160;2022-09-13T09:54:15;4.23;;;2.03;;
1300;SDS011;59099;48.806;9.160;2022-09-13T09:56:50;4.00;;;2.43;;
1300;SDS011;59099;48.806;9.160;2022-09-13T09:59:29;4.63;;;2.63;;
1300;SDS011;59099;48.806;9.160;2022-09-13T10:01:57;8.03;;;3.07;;
1300;SDS011;59099;48.806;9.160;2022-09-13T10:04:38;7.50;;;2.90;;
1300;SDS011;59099;48.806;9.160;2022-09-13T10:07:09;3.97;;;2.50;;
1300;SDS011;59099;48.806;9.160;2022-09-13T10:12:54;7.20;;;3.87;;
1300;SDS011;59099;48.806;9.160;2022-09-13T10:15:22;3.30;;;2.37;;
1300;SDS011;59099;48.806;9.160;2022-09-13T10:18:02;3.40;;;1.80;;
1300;SDS011;59099;48.806;9.160;2022-09-13T10:23:21;2.83;;;2.10;;
1300;SDS011;59099;48.806;9.160;2022-09-13T10:25:57;3.20;;;2.27;;
1300;SDS011;59099;48.806;9.160;2022-09-13T10:28:35;2.63;;;2.17;;
1300;SDS011;59099;48.806;9.160;2022-09-13T10:31:08;1.90;;;1.70;;
1300;SDS011;59099;48.806;9.160;2022-09-13T10:33:43;3.60;;;1.80;;
1300;SDS011;59099;48.806;9.160;2022-09-13T10:39:13;5.10;;;1.70;;
1300;SDS011;59099;48.806;9.160;2022-09-13T10:41:46;3.10;;;1.57;;
1300;SDS011;59099;48.806;9.160;2022-09-13T10:44:23;1.80;;;1.30;;
1300;SDS011;59099;48.806;9.160;2022-09-13T10:47:19;1.30;;;1.20;;
1300;SDS011;59099;48.806;9.160;2022-09-13T10:49:51;1.50;;;1.40;;
1300;SDS011;59099;48.806;9.160;2022-09-13T10:52:26;2.00;;;1.53;;
1300;SDS011;59099;48.806;9.160;2022-09-13T10:54:55;3.13;;;1.40;;
1300;SDS011;59099;48.806;9.160;2022-09-13T10:57:40;1.37;;;1.27;;
1300;SDS011;59099;48.806;9.160;2022-09-13T11:00:06;3.27;;;1.23;;
1300;SDS011;59099;48.806;9.160;2022-09-13T11:08:41;1.57;;;1.37;;
1300;SDS011;59099;48.806;9.160;2022-09-13T11:11:29;1.50;;;1.30;;
1300;SDS011;59099;48.806;9.160;2022-09-13T11:38:55;1.40;;;1.30;;
1300;SDS011;59099;48.806;9.160;2022-09-13T11:50:08;1.57;;;1.47;;
1300;SDS011;59099;48.806;9.160;2022-09-13T11:55:42;2.70;;;1.70;;
1300;SDS011;59099;48.806;9.160;2022-09-13T11:58:18;2.20;;;1.00;;
1300;SDS011;59099;48.806;9.160;2022-09-13T12:00:55;1.43;;;1.10;;
1300;SDS011;59099;48.806;9.160;2022-09-13T12:03:39;1.73;;;1.30;;
1300;SDS011;59099;48.806;9.160;2022-09-13T12:06:17;1.73;;;1.40;;
1300;SDS011;59099;48.806;9.160;2022-09-13T12:08:45;0.80;;;0.80;;
1300;SDS011;59099;48.806;9.160;2022-09-13T12:11:16;1.23;;;1.20;;
1300;SDS011;59099;48.806;9.160;2022-09-13T12:13:49;5.40;;;1.60;;
1300;SDS011;59099;48.806;9.160;2022-09-13T12:16:19;2.97;;;1.47;;
1300;SDS011;59099;48.806;9.160;2022-09-13T12:18:58;2.00;;;0.93;;
1300;SDS011;59099;48.806;9.160;2022-09-13T12:21:31;7.40;;;1.83;;
1300;SDS011;59099;48.806;9.160;2022-09-13T12:24:03;1.33;;;1.23;;
1300;SDS011;59099;48.806;9.160;2022-09-13T12:26:57;1.70;;;1.60;;
1300;SDS011;59099;48.806;9.160;2022-09-13T12:32:29;1.50;;;1.37;;
1300;SDS011;59099;48.806;9.160;2022-09-13T12:35:06;1.57;;;1.47;;
1300;SDS011;59099;48.806;9.160;2022-09-13T12:40:56;1.33;;;1.23;;
1300;SDS011;59099;48.806;9.160;2022-09-13T12:49:27;1.07;;;1.00;;
1300;SDS011;59099;48.806;9.160;2022-09-13T12:52:09;2.20;;;1.30;;
1300;SDS011;59099;48.806;9.160;2022-09-13T13:07:51;1.97;;;1.10;;
1300;SDS011;59099;48.806;9.160;2022-09-13T13:10:36;1.13;;;0.80;;
1300;SDS011;59099;48.806;9.160;2022-09-13T13:15:56;1.23;;;1.10;;
1300;SDS011;59099;48.806;9.160;2022-09-13T13:18:41;2.10;;;1.20;;
1300;SDS011;59099;48.806;9.160;2022-09-13T13:26:52;1.37;;;1.20;;
1300;SDS011;59099;48.806;9.160;2022-09-13T13:29:27;0.90;;;0.90;;
1300;SDS011;59099;48.806;9.160;2022-09-13T13:34:39;1.23;;;1.13;;
1300;SDS011;59099;48.806;9.160;2022-09-13T13:39:38;1.30;;;0.90;;
1300;SDS011;59099;48.806;9.160;2022-09-13T13:50:29;1.63;;;0.90;;
1300;SDS011;59099;48.806;9.160;2022-09-13T13:58:26;1.10;;;1.00;;
1300;SDS011;59099;48.806;9.160;2022-09-13T14:01:25;1.50;;;1.20;;
1300;SDS011;59099;48.806;9.160;2022-09-13T14:07:06;1.00;;;0.80;;
1300;SDS011;59099;48.806;9.160;2022-09-13T14:20:15;0.83;;;0.83;;
1300;SDS011;59099;48.806;9.160;2022-09-13T14:22:42;2.50;;;1.20;;
1300;SDS011;59099;48.806;9.160;2022-09-13T14:27:43;0.77;;;0.77;;
1300;SDS011;59099;48.806;9.160;2022-09-13T14:30:18;1.27;;;0.97;;
1300;SDS011;59099;48.806;9.160;2022-09-13T14:32:51;1.40;;;0.90;;
1300;SDS011;59099;48.806;9.160;2022-09-13T14:35:23;1.53;;;1.00;;
1300;SDS011;59099;48.806;9.160;2022-09-13T14:37:49;1.63;;;0.93;;
1300;SDS011;59099;48.806;9.160;2022-09-13T14:40:17;1.30;;;1.00;;
1300;SDS011;59099;48.806;9.160;2022-09-13T14:42:48;1.87;;;1.00;;
1300;SDS011;59099;48.806;9.160;2022-09-13T14:45:19;3.23;;;1.00;;
1300;SDS011;59099;48.806;9.160;2022-09-13T14:48:34;2.37;;;1.20;;
1300;SDS011;59099;48.806;9.160;2022-09-13T14:50:55;5.30;;;1.30;;
1300;SDS011;59099;48.806;9.160;2022-09-13T14:53:26;3.07;;;0.90;;
1300;SDS011;59099;48.806;9.160;2022-09-13T14:55:56;1.40;;;1.30;;
1300;SDS011;59099;48.806;9.160;2022-09-13T14:58:27;1.00;;;1.00;;
1300;SDS011;59099;48.806;9.160;2022-09-13T15:01:02;1.77;;;1.30;;
1300;SDS011;59099;48.806;9.160;2022-09-13T15:03:31;1.33;;;1.13;;
1300;SDS011;59099;48.806;9.160;2022-09-13T15:05:58;15.80;;;2.87;;
1300;SDS011;59099;48.806;9.160;2022-09-13T15:10:58;1.33;;;1.20;;
1300;SDS011;59099;48.806;9.160;2022-09-13T15:13:31;3.53;;;1.90;;
1300;SDS011;59099;48.806;9.160;2022-09-13T15:15:58;3.00;;;2.13;;
1300;SDS011;59099;48.806;9.160;2022-09-13T15:18:31;3.00;;;2.80;;
1300;SDS011;59099;48.806;9.160;2022-09-13T15:20:58;2.60;;;2.10;;
1300;SDS011;59099;48.806;9.160;2022-09-13T15:25:54;2.80;;;1.50;;
1300;SDS011;59099;48.806;9.160;2022-09-13T15:28:27;2.57;;;2.20;;
1300;SDS011;59099;48.806;9.160;2022-09-13T15:30:56;2.70;;;2.40;;
1300;SDS011;59099;48.806;9.160;2022-09-13T15:33:27;2.90;;;2.70;;
1300;SDS011;59099;48.806;9.160;2022-09-13T15:38:59;1.60;;;1.27;;
1300;SDS011;59099;48.806;9.160;2022-09-13T15:41:32;3.13;;;2.10;;
1300;SDS011;59099;48.806;9.160;2022-09-13T15:44:04;2.53;;;1.60;;
1300;SDS011;59099;48.806;9.160;2022-09-13T15:46:31;1.90;;;1.80;;
1300;SDS011;59099;48.806;9.160;2022-09-13T15:49:15;4.70;;;4.30;;
1300;SDS011;59099;48.806;9.160;2022-09-13T15:51:43;6.03;;;5.50;;
1300;SDS011;59099;48.806;9.160;2022-09-13T15:54:09;2.80;;;2.40;;
1300;SDS011;59099;48.806;9.160;2022-09-13T15:56:37;2.23;;;2.03;;
1300;SDS011;59099;48.806;9.160;2022-09-13T15:59:07;2.10;;;1.40;;
1300;SDS011;59099;48.806;9.160;2022-09-13T16:01:38;3.20;;;1.33;;
1300;SDS011;59099;48.806;9.160;2022-09-13T16:04:07;3.90;;;1.27;;
1300;SDS011;59099;48.806;9.160;2022-09-13T16:06:33;1.47;;;1.00;;
1300;SDS011;59099;48.806;9.160;2022-09-13T16:09:00;8.27;;;1.97;;
1300;SDS011;59099;48.806;9.160;2022-09-13T16:11:26;10.37;;;3.53;;
1300;SDS011;59099;48.806;9.160;2022-09-13T16:13:54;9.07;;;2.53;;
1300;SDS011;59099;48.806;9.160;2022-09-13T16:16:19;9.30;;;2.67;;
1300;SDS011;59099;48.806;9.160;2022-09-13T16:18:45;5.40;;;1.60;;
1300;SDS011;59099;48.806;9.160;2022-09-13T16:21:11;2.67;;;1.53;;
1300;SDS011;59099;48.806;9.160;2022-09-13T16:23:37;2.10;;;1.57;;
1300;SDS011;59099;48.806;9.160;2022-09-13T16:26:02;3.07;;;1.47;;
1300;SDS011;59099;48.806;9.160;2022-09-13T16:28:32;4.63;;;1.20;;
1300;SDS011;59099;48.806;9.160;2022-09-13T16:30:58;1.20;;;1.20;;
1300;SDS011;59099;48.806;9.160;2022-09-13T16:33:23;3.70;;;1.50;;
1300;SDS011;59099;48.806;9.160;2022-09-13T16:35:49;3.67;;;2.00;;
1300;SDS011;59099;48.806;9.160;2022-09-13T16:38:15;1.93;;;1.83;;
1300;SDS011;59099;48.806;9.160;2022-09-13T16:40:42;1.97;;;1.47;;
1300;SDS011;59099;48.806;9.160;2022-09-13T16:43:09;2.60;;;1.40;;
1300;SDS011;59099;48.806;9.160;2022-09-13T16:45:37;2.07;;;1.97;;
1300;SDS011;59099;48.806;9.160;2022-09-13T16:48:05;2.80;;;1.73;;
1300;SDS011;59099;48.806;9.160;2022-09-13T16:50:32;3.73;;;2.57;;
1300;SDS011;59099;48.806;9.160;2022-09-13T16:52:58;2.00;;;1.90;;
1300;SDS011;59099;48.806;9.160;2022-09-13T16:55:24;5.40;;;2.80;;
1300;SDS011;59099;48.806;9.160;2022-09-13T16:57:55;4.13;;;3.20;;
1300;SDS011;59099;48.806;9.160;2022-09-13T17:00:20;4.10;;;3.80;;
1300;SDS011;59099;48.806;9.160;2022-09-13T17:02:48;3.43;;;3.13;;
1300;SDS011;59099;48.806;9.160;2022-09-13T17:05:14;5.10;;;4.03;;
1300;SDS011;59099;48.806;9.160;2022-09-13T17:07:40;4.30;;;4.00;;
1300;SDS011;59099;48.806;9.160;2022-09-13T17:10:06;3.27;;;3.07;;
1300;SDS011;59099;48.806;9.160;2022-09-13T17:12:33;2.80;;;2.60;;
1300;SDS011;59099;48.806;9.160;2022-09-13T17:14:59;3.70;;;2.03;;
1300;SDS011;59099;48.806;9.160;2022-09-13T17:17:25;2.27;;;2.07;;
1300;SDS011;59099;48.806;9.160;2022-09-13T17:19:51;1.60;;;1.50;;
1300;SDS011;59099;48.806;9.160;2022-09-13T17:22:16;4.17;;;1.70;;
1300;SDS011;59099;48.806;9.160;2022-09-13T17:24:42;7.97;;;7.23;;
1300;SDS011;59099;48.806;9.160;2022-09-13T17:27:08;13.57;;;12.20;;
1300;SDS011;59099;48.806;9.160;2022-09-13T17:29:34;10.53;;;9.63;;
1300;SDS011;59099;48.806;9.160;2022-09-13T17:32:00;6.67;;;6.10;;
1300;SDS011;59099;48.806;9.160;2022-09-13T17:34:27;5.30;;;4.80;;
1300;SDS011;59099;48.806;9.160;2022-09-13T17:36:54;7.47;;;6.77;;
1300;SDS011;59099;48.806;9.160;2022-09-13T17:39:21;5.47;;;4.97;;
1300;SDS011;59099;48.806;9.160;2022-09-13T17:41:50;6.50;;;4.33;;
1300;SDS011;59099;48.806;9.160;2022-09-13T17:44:16;5.70;;;4.93;;
1300;SDS011;59099;48.806;9.160;2022-09-13T17:46:42;6.73;;;5.77;;
1300;SDS011;59099;48.806;9.160;2022-09-13T17:49:08;4.80;;;4.30;;
1300;SDS011;59099;48.806;9.160;2022-09-13T17:51:34;3.90;;;3.60;;
1300;SDS011;59099;48.806;9.160;2022-09-13T17:54:04;4.10;;;3.60;;
1300;SDS011;59099;48.806;9.160;2022-09-13T17:56:31;2.87;;;2.60;;
1300;SDS011;59099;48.806;9.160;2022-09-13T17:59:19;2.60;;;2.00;;
1300;SDS011;59099;48.806;9.160;2022-09-13T18:01:47;3.10;;;1.90;;
1300;SDS011;59099;48.806;9.160;2022-09-13T18:04:15;2.27;;;2.17;;
1300;SDS011;59099;48.806;9.160;2022-09-13T18:06:42;3.53;;;2.40;;
1300;SDS011;59099;48.806;9.160;2022-09-13T18:09:12;2.73;;;2.30;;
1300;SDS011;59099;48.806;9.160;2022-09-13T18:11:40;3.00;;;1.77;;
1300;SDS011;59099;48.806;9.160;2022-09-13T18:14:10;2.50;;;2.10;;
1300;SDS011;59099;48.806;9.160;2022-09-13T18:16:37;2.80;;;2.10;;
1300;SDS011;59099;48.806;9.160;2022-09-13T18:19:03;4.00;;;2.80;;
1300;SDS011;59099;48.806;9.160;2022-09-13T18:24:59;3.00;;;2.57;;
1300;SDS011;59099;48.806;9.160;2022-09-13T18:33:38;2.50;;;2.30;;
1300;SDS011;59099;48.806;9.160;2022-09-13T18:36:04;4.30;;;2.63;;
1300;SDS011;59099;48.806;9.160;2022-09-13T18:38:39;3.87;;;2.40;;
1300;SDS011;59099;48.806;9.160;2022-09-13T18:41:10;4.03;;;2.10;;
1300;SDS011;59099;48.806;9.160;2022-09-13T18:43:36;2.23;;;2.03;;
1300;SDS011;59099;48.806;9.160;2022-09-13T18:46:05;2.30;;;2.10;;